METAR Data
IDs: Format: Raw Decoded Include TAF

Data at: 1817 UTC 09 Jun 2023

KEMT 091745Z 00000KT 10SM OVC020 18/12 A3004
No TAF found for KEMT

KONT 091753Z 24005KT 5SM HZ BKN018 OVC024 17/12 A3003 RMK AO2 SLP162 T01720122 10172 20144 53001

KONT 091740Z 0918/1024 VRB04KT 5SM BR BKN017 OVC025
  FM091900 25005KT P6SM BKN025
  FM092030 26012G18KT P6SM SKC
  FM100500 25006KT P6SM BKN020
  FM100900 VRB04KT P6SM OVC015
  FM101700 VRB04KT P6SM BKN022
  FM102100 26011KT P6SM SCT025


KBUR 091753Z VRB03KT 10SM OVC019 17/12 A3003 RMK AO2 SLP160 T01720117 10172 20144 51002

KBUR 091733Z 0918/1018 VRB03KT P6SM BKN022
  FM092000 18008KT P6SM BKN050
  FM100600 VRB03KT P6SM OVC015


KLGB 091753Z 23003KT 10SM OVC017 17/13 A3004 RMK AO2 SLP171 T01720128 10178 20161 51006

KLGB 091733Z 0918/1018 VRB03KT P6SM OVC025
  FM092100 22008KT P6SM OVC050
  FM100000 28010KT P6SM BKN025
  FM100700 VRB03KT P6SM OVC015


KFUL 091753Z 21005KT 10SM OVC028 19/13 A3002 RMK AO2 SLP165 T01890133 10194 20167 51003
No TAF found for KFUL

KPOC 091747Z 26005KT 4SM OVC020 17/12 A3004 BR
No TAF found for KPOC

KCQT 091747Z AUTO 00000KT 10SM OVC019 18/13 A3004 RMK AO2 SLP170 T01830133 10183 20156 51004
No TAF found for KCQT